Terminal Aerodrome Forecast
Issued by NWS

Home | Current Version | Previous Version | Text Only | Print | Product List | Glossary On
Versions: 1 2 3 4 5 6 7 8 9 10 11 12 13 14 15
000
FTUS44 KBMX 011100 RRA
TAFTCL
TAF
KTCL 011146Z 0112/0212 12005KT 6SM BR OVC010
     FM011300 14005KT 6SM BR OVC007
     FM011800 15004KT 6SM BR OVC010
     FM020500 11003KT 6SM BR OVC007=

USA.gov is the U.S. government's official web portal to all federal, state and local government web resources and services.